createdAt,value
2022-12-04T00:04:09.848Z,54.87
2022-12-04T00:09:12.136Z,56.96
2022-12-04T00:14:15.436Z,56.79
2022-12-04T00:19:18.078Z,55.92
2022-12-04T00:24:19.852Z,56.25
2022-12-04T00:29:23.021Z,56.33
2022-12-04T00:34:24.829Z,57.88
2022-12-04T00:39:26.579Z,58.32
2022-12-04T00:44:30.253Z,59.07
2022-12-04T00:49:32.629Z,57.04
2022-12-04T00:54:34.594Z,56.35
2022-12-04T00:59:38.302Z,56.77
2022-12-04T01:04:40.038Z,57.07
2022-12-04T01:09:41.789Z,57.05
2022-12-04T01:14:45.098Z,57.13
2022-12-04T01:19:46.995Z,56.91
2022-12-04T01:24:48.829Z,56.89
2022-12-04T01:29:52.100Z,56.96
2022-12-04T01:34:53.999Z,56.63
2022-12-04T01:39:56.289Z,55.66
2022-12-04T01:45:32.156Z,56.13
2022-12-04T01:50:33.959Z,56.31
2022-12-04T01:55:35.711Z,56.48
2022-12-04T02:00:38.789Z,55.83
2022-12-04T02:05:40.562Z,55.18
2022-12-04T02:10:46.664Z,54.84
2022-12-04T02:15:52.987Z,54.47
2022-12-04T02:20:57.488Z,55.23
2022-12-04T02:26:01.522Z,55.38
2022-12-04T02:31:04.911Z,55.51
2022-12-04T02:36:07.970Z,55.17
2022-12-04T02:41:11.598Z,54.59
2022-12-04T02:46:17.330Z,54.66
2022-12-04T02:51:20.208Z,54.64
2022-12-04T02:56:23.490Z,54.41
2022-12-04T03:01:28.135Z,54.31
2022-12-04T03:06:31.210Z,54.72
2022-12-04T03:11:34.089Z,54.46
2022-12-04T03:16:38.784Z,54.54
2022-12-04T03:21:41.770Z,54.29
2022-12-04T03:26:45.621Z,54.17
2022-12-04T03:31:50.000Z,53.79
2022-12-04T03:36:53.170Z,54.27
2022-12-04T03:41:57.223Z,53.87
2022-12-04T03:47:02.928Z,53.60
2022-12-04T03:52:06.898Z,54.20
2022-12-04T03:57:11.019Z,54.49
2022-12-04T04:02:15.254Z,54.12
2022-12-04T04:07:20.065Z,53.77
2022-12-04T04:12:23.156Z,54.20
2022-12-04T04:18:07.514Z,54.76
2022-12-04T04:23:28.100Z,54.42
2022-12-04T04:28:31.062Z,54.05
2022-12-04T04:33:34.716Z,54.30
2022-12-04T04:38:38.956Z,54.02
2022-12-04T04:43:43.906Z,53.83
2022-12-04T04:48:48.915Z,54.08
2022-12-04T04:53:51.722Z,54.11
2022-12-04T04:58:53.468Z,53.75
2022-12-04T05:03:56.548Z,53.69
2022-12-04T05:08:58.304Z,53.65
2022-12-04T05:14:00.108Z,53.38
2022-12-04T05:19:21.804Z,54.06
2022-12-04T05:24:23.569Z,53.65
2022-12-04T05:29:25.317Z,53.54
2022-12-04T05:34:28.398Z,53.44
2022-12-04T05:39:30.088Z,53.40
2022-12-04T05:44:31.894Z,53.62
2022-12-04T05:49:35.307Z,53.29
2022-12-04T05:54:37.338Z,52.72
2022-12-04T05:59:39.307Z,52.90
2022-12-04T06:04:42.444Z,52.61
2022-12-04T06:09:44.299Z,52.64
2022-12-04T06:14:46.081Z,52.51
2022-12-04T06:19:49.293Z,52.20
2022-12-04T06:24:51.072Z,51.82
2022-12-04T06:29:52.976Z,52.14
2022-12-04T06:34:56.186Z,52.23
2022-12-04T06:39:58.171Z,52.37
2022-12-04T06:45:00.095Z,52.11
2022-12-04T06:50:03.712Z,51.71
2022-12-04T06:55:06.425Z,51.44
2022-12-04T07:00:09.363Z,51.51
2022-12-04T07:05:12.445Z,52.04
2022-12-04T07:10:14.196Z,52.48
2022-12-04T07:15:15.987Z,52.52
2022-12-04T07:20:19.245Z,52.17
2022-12-04T07:25:21.028Z,52.20
2022-12-04T07:30:23.126Z,51.95
2022-12-04T07:35:26.268Z,51.84
2022-12-04T07:40:28.063Z,53.18
2022-12-04T07:45:29.854Z,53.33
2022-12-04T07:50:32.982Z,53.32
2022-12-04T07:55:34.808Z,53.17
2022-12-04T08:00:36.584Z,53.92
2022-12-04T08:05:39.648Z,53.70
2022-12-04T08:10:41.449Z,54.16
2022-12-04T08:15:43.257Z,54.66
2022-12-04T08:20:46.423Z,54.23
2022-12-04T08:25:48.253Z,54.76
2022-12-04T08:30:49.988Z,54.54
2022-12-04T08:35:53.219Z,54.92
2022-12-04T08:40:54.960Z,55.06
2022-12-04T08:45:57.177Z,54.86
2022-12-04T08:51:00.417Z,54.99
2022-12-04T08:56:02.205Z,55.34
2022-12-04T09:01:05.150Z,55.67
2022-12-04T09:06:08.872Z,54.72
2022-12-04T09:11:12.130Z,53.72
2022-12-04T09:16:15.438Z,53.31
2022-12-04T09:21:19.493Z,53.36
2022-12-04T09:26:22.621Z,52.88
2022-12-04T09:31:24.598Z,52.99
2022-12-04T09:36:27.915Z,53.07
2022-12-04T09:42:08.643Z,52.84
2022-12-04T09:47:13.737Z,52.67
2022-12-04T09:52:24.110Z,52.41
2022-12-04T09:57:28.636Z,52.81
2022-12-04T10:02:34.443Z,52.86
2022-12-04T10:07:42.333Z,53.96
2022-12-04T10:12:49.064Z,53.66
2022-12-04T10:17:58.014Z,55.38
2022-12-04T10:23:08.098Z,56.04
2022-12-04T10:28:19.113Z,56.18
2022-12-04T10:33:32.467Z,56.44
2022-12-04T10:38:39.194Z,56.55
2022-12-04T10:43:42.910Z,56.34
2022-12-04T10:48:45.326Z,57.60
2022-12-04T10:53:51.318Z,58.23
2022-12-04T10:58:57.531Z,58.03
2022-12-04T11:04:02.053Z,57.73
2022-12-04T11:09:05.100Z,57.26
2022-12-04T11:14:08.009Z,56.94
2022-12-04T11:19:21.227Z,56.99
2022-12-04T11:24:33.159Z,56.88
2022-12-04T11:29:36.336Z,57.15
2022-12-04T11:34:39.754Z,57.51
2022-12-04T11:39:42.912Z,57.33
2022-12-04T11:44:50.352Z,56.73
2022-12-04T11:50:01.562Z,56.54
2022-12-04T11:55:08.930Z,56.30
2022-12-04T12:00:12.437Z,56.15
2022-12-04T12:05:39.634Z,56.30
2022-12-04T12:10:45.137Z,56.23
2022-12-04T12:15:50.157Z,56.71
2022-12-04T12:20:56.672Z,56.24
2022-12-04T12:26:03.277Z,55.69
2022-12-04T12:31:13.529Z,55.54
2022-12-04T12:36:15.313Z,55.92
2022-12-04T12:41:19.778Z,56.19
2022-12-04T12:46:24.112Z,56.35
2022-12-04T12:51:30.735Z,55.66
2022-12-04T12:56:38.379Z,55.37
2022-12-04T13:01:44.427Z,55.53
2022-12-04T13:06:47.207Z,55.93
2022-12-04T13:11:50.240Z,56.64
2022-12-04T13:16:53.220Z,56.27
2022-12-04T13:21:59.467Z,56.24
2022-12-04T13:27:05.061Z,55.54
2022-12-04T13:32:14.519Z,55.84
2022-12-04T13:37:38.553Z,55.52
2022-12-04T13:42:42.192Z,55.47
2022-12-04T13:47:43.890Z,55.68
2022-12-04T13:52:47.243Z,55.45
2022-12-04T13:57:54.835Z,55.26
2022-12-04T14:02:57.794Z,55.15
2022-12-04T14:08:07.841Z,55.33
2022-12-04T14:13:17.839Z,55.56
2022-12-04T14:18:25.387Z,55.19
2022-12-04T14:23:33.206Z,54.92
2022-12-04T14:28:42.582Z,55.57
2022-12-04T14:33:45.615Z,55.39
2022-12-04T14:38:47.932Z,55.34
2022-12-04T14:43:52.574Z,55.39
2022-12-04T14:48:56.996Z,55.48
2022-12-04T14:54:01.097Z,55.83
2022-12-04T14:59:06.695Z,55.47
2022-12-04T15:04:13.131Z,55.41
2022-12-04T15:09:35.964Z,55.70
2022-12-04T15:14:42.791Z,55.45
2022-12-04T15:19:44.509Z,54.99
2022-12-04T15:24:46.161Z,55.28
2022-12-04T15:29:51.352Z,55.18
2022-12-04T15:34:54.807Z,55.62
2022-12-04T15:39:56.969Z,54.92
2022-12-04T15:45:02.525Z,54.62
2022-12-04T15:50:09.872Z,55.65
2022-12-04T15:55:12.989Z,55.54
2022-12-04T16:00:24.665Z,55.40
2022-12-04T16:05:34.837Z,55.04
2022-12-04T16:10:37.875Z,55.35
2022-12-04T16:15:41.924Z,56.05
2022-12-04T16:20:43.730Z,56.28
2022-12-04T16:25:45.793Z,56.83
2022-12-04T16:30:50.168Z,57.00
2022-12-04T16:35:51.962Z,56.81
2022-12-04T16:40:53.693Z,56.42
2022-12-04T16:46:00.264Z,56.05
2022-12-04T16:51:02.006Z,56.10
2022-12-04T16:56:04.068Z,55.80
2022-12-04T17:01:13.782Z,56.09
2022-12-04T17:06:15.579Z,56.12
2022-12-04T17:11:17.607Z,56.43
2022-12-04T17:16:20.858Z,55.82
2022-12-04T17:21:22.709Z,56.10
2022-12-04T17:26:24.638Z,56.54
2022-12-04T17:31:27.945Z,56.29
2022-12-04T17:36:30.205Z,55.46
2022-12-04T17:41:31.987Z,55.11
2022-12-04T17:46:35.162Z,55.02
2022-12-04T17:51:37.665Z,55.12
2022-12-04T17:56:43.293Z,55.65
2022-12-04T18:01:50.430Z,56.33
2022-12-04T18:06:52.729Z,56.05
2022-12-04T18:11:56.193Z,55.70
2022-12-04T18:16:59.455Z,55.54
2022-12-04T18:22:01.403Z,55.55
2022-12-04T18:27:03.650Z,56.70
2022-12-04T18:32:06.914Z,56.77
2022-12-04T18:37:09.081Z,56.83
2022-12-04T18:42:11.765Z,57.96
2022-12-04T18:47:14.907Z,58.11
2022-12-04T18:52:16.656Z,57.34
2022-12-04T18:57:18.403Z,57.33
2022-12-04T19:02:21.566Z,57.63
2022-12-04T19:07:23.351Z,58.17
2022-12-04T19:12:25.140Z,58.13
2022-12-04T19:17:28.272Z,58.39
2022-12-04T19:22:30.026Z,58.39
2022-12-04T19:27:31.843Z,58.89
2022-12-04T19:32:34.975Z,59.05
2022-12-04T19:37:41.585Z,59.58
2022-12-04T19:42:43.792Z,59.85
2022-12-04T19:47:47.006Z,59.12
2022-12-04T19:52:48.762Z,59.27
2022-12-04T19:57:50.546Z,59.36
2022-12-04T20:02:53.723Z,59.15
2022-12-04T20:07:55.678Z,58.51
2022-12-04T20:12:57.483Z,59.11
2022-12-04T20:18:00.601Z,59.12
2022-12-04T20:23:02.466Z,58.61
2022-12-04T20:28:04.269Z,58.58
2022-12-04T20:33:07.332Z,58.35
2022-12-04T20:38:09.110Z,58.32
2022-12-04T20:43:10.883Z,57.97
2022-12-04T20:48:14.031Z,58.52
2022-12-04T20:53:16.373Z,58.13
2022-12-04T20:58:18.145Z,58.56
2022-12-04T21:03:21.323Z,58.33
2022-12-04T21:08:43.056Z,58.35
2022-12-04T21:14:03.720Z,59.48
2022-12-04T21:19:07.378Z,58.69
2022-12-04T21:24:11.943Z,57.99
2022-12-04T21:29:13.773Z,57.99
2022-12-04T21:34:17.182Z,58.33
2022-12-04T21:39:19.741Z,57.30
2022-12-04T21:44:21.764Z,58.03
2022-12-04T21:49:24.974Z,57.59
2022-12-04T21:54:26.987Z,57.96
2022-12-04T21:59:28.808Z,57.74
2022-12-04T22:04:31.941Z,57.61
2022-12-04T22:09:33.824Z,57.96
2022-12-04T22:14:35.563Z,57.48
2022-12-04T22:19:39.114Z,57.79
2022-12-04T22:24:41.632Z,58.14
2022-12-04T22:30:02.284Z,58.04
2022-12-04T22:35:08.149Z,59.00
2022-12-04T22:40:10.993Z,58.96
2022-12-04T22:45:12.722Z,58.14
2022-12-04T22:50:15.984Z,58.37
2022-12-04T22:55:17.890Z,58.92
2022-12-04T23:00:19.695Z,58.18
2022-12-04T23:05:22.805Z,57.98
2022-12-04T23:10:24.655Z,58.05
2022-12-04T23:15:26.390Z,58.32
2022-12-04T23:20:29.462Z,58.17
2022-12-04T23:25:31.192Z,57.84
2022-12-04T23:30:36.596Z,57.94
2022-12-04T23:35:39.904Z,58.67
2022-12-04T23:40:41.644Z,58.70
2022-12-04T23:45:43.600Z,58.46
2022-12-04T23:50:46.702Z,58.17
2022-12-04T23:55:55.571Z,58.19
